EDT,Max TemperatureF,Mean TemperatureF,Min TemperatureF,Max Dew PointF,MeanDew PointF,Min DewpointF,Max Humidity, Mean Humidity, Min Humidity, Max Sea Level PressureIn, Mean Sea Level PressureIn, Min Sea Level PressureIn, Max VisibilityMiles, Mean VisibilityMiles, Min VisibilityMiles, Max Wind SpeedMPH, Mean Wind SpeedMPH, Max Gust SpeedMPH,PrecipitationIn, CloudCover, Events, WindDirDegrees
2013-8-1,79,70,59,65,63,59,100,84,56,29.99,29.94,29.89,10,8,2,9,4,,0.03,5,Rain,262
2013-8-2,74,64,53,64,57,54,100,90,51,30.05,29.96,29.93,10,4,0,10,1,,0.09,1,Fog-Rain,238
2013-8-3,77,67,55,65,61,51,100,83,43,30.07,30.00,29.96,10,8,2,18,7,24,0.36,5,Rain,265
2013-8-4,72,62,52,58,54,52,100,77,49,30.17,30.11,30.02,10,9,2,12,3,17,0.00,2,,324
2013-8-5,73,60,47,55,51,46,100,82,43,30.20,30.15,30.09,10,7,0,7,0,,0.00,1,Fog,247
2013-8-6,79,66,52,58,55,53,100,77,44,30.10,30.06,30.02,10,8,0,7,1,,0.00,1,Fog-Rain,135
2013-8-7,82,69,56,70,64,56,100,89,66,30.04,30.01,29.95,10,6,0,21,3,37,0.46,4,Fog-Rain,247
2013-8-8,84,74,64,73,69,64,100,89,65,30.04,30.00,29.93,10,7,3,12,2,,0.07,4,Rain,76
2013-8-9,77,68,59,70,67,58,100,95,62,30.09,29.96,29.92,10,4,0,9,1,,0.03,6,Fog-Rain,302
2013-8-10,80,68,55,62,59,55,100,77,50,30.17,30.12,30.07,10,8,0,7,1,,0.00,3,Fog,13
2013-8-11,80,70,59,63,59,55,96,71,47,30.21,30.14,30.06,10,10,10,7,2,,0.02,5,Rain,45
2013-8-12,81,68,55,70,61,55,100,89,54,30.13,30.06,29.91,10,5,0,12,1,,0.00,5,Fog-Rain,280
2013-8-13,73,64,50,68,60,48,100,78,59,30.05,29.90,29.83,10,9,3,16,5,24,0.00,5,Rain,323
2013-8-14,68,58,48,54,50,47,100,76,49,30.23,30.13,30.06,10,10,6,10,3,,0.00,4,Rain,313
2013-8-15,72,57,42,54,47,43,100,87,41,30.28,30.21,30.18,10,4,0,7,0,,0.00,1,Fog,246
2013-8-16,73,62,50,56,52,50,100,72,43,30.26,30.23,30.20,10,10,8,8,1,,0.00,0,Rain,15
2013-8-17,77,64,50,58,54,50,97,71,43,30.32,30.29,30.23,10,10,6,10,2,,0.00,1,Rain,94
2013-8-18,73,64,56,63,60,56,97,82,65,30.29,30.25,30.19,10,10,10,5,0,,0.00,4,,-1
2013-8-19,79,70,59,65,63,58,100,84,47,30.20,30.16,30.13,10,8,2,8,1,,0.00,6,,276
2013-8-20,82,68,53,66,58,54,100,90,47,30.25,30.17,30.14,10,4,0,7,0,,0.00,1,Fog-Rain,240
2013-8-21,86,70,55,69,60,55,100,90,44,30.27,30.20,30.13,10,4,0,4,0,,0.00,0,Fog-Rain,-1
2013-8-22,82,72,63,71,66,62,100,83,58,30.15,30.09,30.02,10,8,2,9,2,,0.00,2,,249
2013-8-23,79,69,59,66,63,51,100,86,40,30.24,30.09,30.04,10,5,0,12,1,17,0.00,3,Fog-Rain,16
2013-8-24,79,64,50,57,53,50,100,70,36,30.38,30.33,30.26,10,10,9,6,2,,0.00,0,Rain,44
2013-8-25,84,67,50,62,57,50,100,75,38,30.43,30.36,30.29,10,9,1,8,1,,0.00,0,,236
2013-8-26,86,74,61,69,62,57,93,70,46,30.29,30.18,30.06,10,10,10,12,4,18,0.02,1,Rain,221
2013-8-27,83,74,66,72,69,66,100,85,62,30.07,30.02,29.99,10,9,2,12,4,25,0.00,3,Rain,251
2013-8-28,77,73,69,74,72,69,100,98,84,30.01,29.91,29.86,10,4,0,9,2,,0.55,7,Fog-Rain,290
2013-8-29,83,74,66,70,68,65,100,86,53,30.11,30.06,29.98,10,6,1,6,2,,0.00,4,Rain,11
2013-8-30,86,74,61,71,66,62,100,92,53,30.07,30.01,29.88,10,3,0,12,0,,0.00,3,Fog,226
2013-8-31,87,78,68,72,70,68,100,78,52,29.90,29.86,29.82,10,9,4,12,2,,0.00,2,,250